sensor_id;sensor_type;location;lat;lon;timestamp;pressure;altitude;pressure_sealevel;temperature;humidity
10978;BME280;5542;48.272;10.794;2024-03-22T00:01:44;96429.69;;;6.91;89.91
10978;BME280;5542;48.272;10.794;2024-03-22T00:04:11;96427.88;;;6.91;90.36
10978;BME280;5542;48.272;10.794;2024-03-22T00:06:37;96424.44;;;6.91;90.59
10978;BME280;5542;48.272;10.794;2024-03-22T00:09:05;96418.41;;;6.90;90.73
10978;BME280;5542;48.272;10.794;2024-03-22T00:11:31;96420.03;;;6.91;91.00
10978;BME280;5542;48.272;10.794;2024-03-22T00:13:59;96414.22;;;6.96;90.90
10978;BME280;5542;48.272;10.794;2024-03-22T00:16:25;96420.03;;;6.91;91.57
10978;BME280;5542;48.272;10.794;2024-03-22T00:18:52;96418.97;;;6.86;91.92
10978;BME280;5542;48.272;10.794;2024-03-22T00:21:18;96416.38;;;6.86;92.15
10978;BME280;5542;48.272;10.794;2024-03-22T00:23:45;96418.97;;;6.86;92.33
10978;BME280;5542;48.272;10.794;2024-03-22T00:26:11;96409.44;;;7.00;91.17
10978;BME280;5542;48.272;10.794;2024-03-22T00:28:37;96407.72;;;6.85;91.73
10978;BME280;5542;48.272;10.794;2024-03-22T00:31:05;96407.03;;;6.77;91.67
10978;BME280;5542;48.272;10.794;2024-03-22T00:33:32;96409.59;;;6.70;92.86
10978;BME280;5542;48.272;10.794;2024-03-22T00:35:58;96407.59;;;6.72;93.02
10978;BME280;5542;48.272;10.794;2024-03-22T00:38:24;96406.41;;;6.75;92.12
10978;BME280;5542;48.272;10.794;2024-03-22T00:40:50;96394.72;;;6.71;92.42
10978;BME280;5542;48.272;10.794;2024-03-22T00:43:17;96396.88;;;6.67;92.29
10978;BME280;5542;48.272;10.794;2024-03-22T00:45:43;96400.31;;;6.67;92.10
10978;BME280;5542;48.272;10.794;2024-03-22T00:48:11;96395.44;;;6.64;92.47
10978;BME280;5542;48.272;10.794;2024-03-22T00:50:37;96396.88;;;6.67;92.34
10978;BME280;5542;48.272;10.794;2024-03-22T00:53:03;96389.66;;;6.69;92.31
10978;BME280;5542;48.272;10.794;2024-03-22T00:55:30;96383.88;;;6.74;91.80
10978;BME280;5542;48.272;10.794;2024-03-22T00:57:57;96385.88;;;6.72;91.92
10978;BME280;5542;48.272;10.794;2024-03-22T01:00:24;96379.84;;;6.71;91.60
10978;BME280;5542;48.272;10.794;2024-03-22T01:02:51;96375.97;;;6.67;91.54
10978;BME280;5542;48.272;10.794;2024-03-22T01:05:18;96368.69;;;6.62;91.67
10978;BME280;5542;48.272;10.794;2024-03-22T01:07:45;96362.06;;;6.60;91.84
10978;BME280;5542;48.272;10.794;2024-03-22T01:10:11;96365.63;;;6.59;91.70
10978;BME280;5542;48.272;10.794;2024-03-22T01:12:38;96358.81;;;6.58;91.74
10978;BME280;5542;48.272;10.794;2024-03-22T01:15:05;96355.94;;;6.53;91.98
10978;BME280;5542;48.272;10.794;2024-03-22T01:17:32;96354.56;;;6.57;92.04
10978;BME280;5542;48.272;10.794;2024-03-22T01:19:58;96362.66;;;6.62;91.50
10978;BME280;5542;48.272;10.794;2024-03-22T01:22:26;96362.06;;;6.60;91.22
10978;BME280;5542;48.272;10.794;2024-03-22T01:24:52;96359.16;;;6.55;91.30
10978;BME280;5542;48.272;10.794;2024-03-22T01:27:19;96359.31;;;6.47;91.04
10978;BME280;5542;48.272;10.794;2024-03-22T01:29:46;96353.84;;;6.41;91.55
10978;BME280;5542;48.272;10.794;2024-03-22T01:32:12;96354.41;;;6.37;91.89
10978;BME280;5542;48.272;10.794;2024-03-22T01:34:38;96352.59;;;6.37;92.24
10978;BME280;5542;48.272;10.794;2024-03-22T01:37:05;96356.63;;;6.40;92.28
10978;BME280;5542;48.272;10.794;2024-03-22T01:39:33;96350.41;;;6.41;92.17
10978;BME280;5542;48.272;10.794;2024-03-22T01:41:59;96347.81;;;6.41;92.18
10978;BME280;5542;48.272;10.794;2024-03-22T01:44:27;96351.38;;;6.40;92.24
10978;BME280;5542;48.272;10.794;2024-03-22T01:46:54;96342.63;;;6.48;91.83
10978;BME280;5542;48.272;10.794;2024-03-22T01:49:21;96345.00;;;6.43;91.84
10978;BME280;5542;48.272;10.794;2024-03-22T01:51:48;96346.97;;;6.40;91.80
10978;BME280;5542;48.272;10.794;2024-03-22T01:54:15;96342.94;;;6.38;91.81
10978;BME280;5542;48.272;10.794;2024-03-22T01:56:44;96352.16;;;6.34;92.26
10978;BME280;5542;48.272;10.794;2024-03-22T01:59:10;96340.88;;;6.33;91.79
10978;BME280;5542;48.272;10.794;2024-03-22T02:01:36;96330.06;;;6.36;91.29
10978;BME280;5542;48.272;10.794;2024-03-22T02:04:02;96325.81;;;6.35;90.85
10978;BME280;5542;48.272;10.794;2024-03-22T02:06:29;96312.72;;;6.29;91.53
10978;BME280;5542;48.272;10.794;2024-03-22T02:08:56;96319.50;;;6.23;92.07
10978;BME280;5542;48.272;10.794;2024-03-22T02:11:22;96313.50;;;6.29;91.89
10978;BME280;5542;48.272;10.794;2024-03-22T02:13:50;96309.03;;;6.23;91.79
10978;BME280;5542;48.272;10.794;2024-03-22T02:16:16;96312.66;;;6.22;92.06
10978;BME280;5542;48.272;10.794;2024-03-22T02:18:42;96321.09;;;6.24;92.07
10978;BME280;5542;48.272;10.794;2024-03-22T02:21:10;96309.84;;;6.24;91.76
10978;BME280;5542;48.272;10.794;2024-03-22T02:23:38;96303.81;;;6.23;91.74
10978;BME280;5542;48.272;10.794;2024-03-22T02:26:05;96301.81;;;6.25;91.76
10978;BME280;5542;48.272;10.794;2024-03-22T02:28:32;96306.59;;;6.22;91.83
10978;BME280;5542;48.272;10.794;2024-03-22T02:30:59;96292.13;;;6.19;92.09
10978;BME280;5542;48.272;10.794;2024-03-22T02:33:26;96297.97;;;6.21;91.98
10978;BME280;5542;48.272;10.794;2024-03-22T02:35:52;96301.56;;;6.20;91.80
10978;BME280;5542;48.272;10.794;2024-03-22T02:38:18;96287.09;;;6.18;91.15
10978;BME280;5542;48.272;10.794;2024-03-22T02:40:48;96286.00;;;6.12;90.75
10978;BME280;5542;48.272;10.794;2024-03-22T02:43:14;96287.00;;;6.11;90.19
10978;BME280;5542;48.272;10.794;2024-03-22T02:45:43;96281.50;;;5.99;90.29
10978;BME280;5542;48.272;10.794;2024-03-22T02:48:08;96279.25;;;5.96;90.46
10978;BME280;5542;48.272;10.794;2024-03-22T02:50:36;96278.25;;;5.97;90.51
10978;BME280;5542;48.272;10.794;2024-03-22T02:53:02;96276.19;;;5.93;90.97
10978;BME280;5542;48.272;10.794;2024-03-22T02:55:29;96279.59;;;5.93;91.05
10978;BME280;5542;48.272;10.794;2024-03-22T02:57:56;96273.28;;;5.87;91.26
10978;BME280;5542;48.272;10.794;2024-03-22T03:00:23;96269.06;;;5.86;91.43
10978;BME280;5542;48.272;10.794;2024-03-22T03:02:49;96263.03;;;5.86;91.76
10978;BME280;5542;48.272;10.794;2024-03-22T03:05:16;96266.81;;;5.83;91.96
10978;BME280;5542;48.272;10.794;2024-03-22T03:07:42;96252.41;;;5.87;92.00
10978;BME280;5542;48.272;10.794;2024-03-22T03:10:09;96262.78;;;5.81;91.71
10978;BME280;5542;48.272;10.794;2024-03-22T03:12:35;96262.00;;;5.80;91.43
10978;BME280;5542;48.272;10.794;2024-03-22T03:15:04;96252.34;;;5.81;91.25
10978;BME280;5542;48.272;10.794;2024-03-22T03:17:30;96246.69;;;5.77;91.70
10978;BME280;5542;48.272;10.794;2024-03-22T03:19:57;96245.44;;;5.73;91.82
10978;BME280;5542;48.272;10.794;2024-03-22T03:22:23;96246.06;;;5.75;92.26
10978;BME280;5542;48.272;10.794;2024-03-22T03:24:50;96240.81;;;5.90;91.04
10978;BME280;5542;48.272;10.794;2024-03-22T03:27:15;96236.69;;;5.81;91.08
10978;BME280;5542;48.272;10.794;2024-03-22T03:29:42;96236.59;;;5.74;91.46
10978;BME280;5542;48.272;10.794;2024-03-22T03:32:09;96233.63;;;5.77;91.80
10978;BME280;5542;48.272;10.794;2024-03-22T03:34:36;96234.28;;;5.79;91.92
10978;BME280;5542;48.272;10.794;2024-03-22T03:37:02;96228.22;;;5.79;92.00
10978;BME280;5542;48.272;10.794;2024-03-22T03:39:29;96230.16;;;5.70;92.29
10978;BME280;5542;48.272;10.794;2024-03-22T03:41:54;96234.03;;;5.59;92.84
10978;BME280;5542;48.272;10.794;2024-03-22T03:44:21;96230.19;;;5.55;93.54
10978;BME280;5542;48.272;10.794;2024-03-22T03:46:47;96225.66;;;5.43;94.38
10978;BME280;5542;48.272;10.794;2024-03-22T03:49:15;96223.41;;;5.39;94.84
10978;BME280;5542;48.272;10.794;2024-03-22T03:51:41;96219.53;;;5.35;95.98
10978;BME280;5542;48.272;10.794;2024-03-22T03:54:07;96219.06;;;5.47;95.57
10978;BME280;5542;48.272;10.794;2024-03-22T03:56:33;96219.44;;;5.44;95.77
10978;BME280;5542;48.272;10.794;2024-03-22T03:59:00;96216.63;;;5.45;95.77
10978;BME280;5542;48.272;10.794;2024-03-22T04:01:26;96219.69;;;5.49;96.24
10978;BME280;5542;48.272;10.794;2024-03-22T04:03:52;96215.81;;;5.45;96.23
10978;BME280;5542;48.272;10.794;2024-03-22T04:06:20;96219.78;;;5.77;94.77
10978;BME280;5542;48.272;10.794;2024-03-22T04:08:46;96211.66;;;5.65;95.34
10978;BME280;5542;48.272;10.794;2024-03-22T04:11:12;96209.03;;;5.65;95.42
10978;BME280;5542;48.272;10.794;2024-03-22T04:13:39;96209.94;;;5.79;94.25
10978;BME280;5542;48.272;10.794;2024-03-22T04:16:05;96207.94;;;5.59;95.04
10978;BME280;5542;48.272;10.794;2024-03-22T04:18:32;96205.97;;;5.61;95.49
10978;BME280;5542;48.272;10.794;2024-03-22T04:20:59;96202.31;;;5.56;95.99
10978;BME280;5542;48.272;10.794;2024-03-22T04:23:27;96200.25;;;5.51;96.19
10978;BME280;5542;48.272;10.794;2024-03-22T04:25:54;96212.41;;;5.44;96.23
10978;BME280;5542;48.272;10.794;2024-03-22T04:28:21;96210.59;;;5.45;96.86
10978;BME280;5542;48.272;10.794;2024-03-22T04:30:55;96207.00;;;5.46;96.95
10978;BME280;5542;48.272;10.794;2024-03-22T04:33:22;96204.47;;;5.52;96.35
10978;BME280;5542;48.272;10.794;2024-03-22T04:35:47;96203.28;;;5.55;95.46
10978;BME280;5542;48.272;10.794;2024-03-22T04:38:14;96198.06;;;5.55;95.36
10978;BME280;5542;48.272;10.794;2024-03-22T04:40:42;96195.00;;;5.66;93.95
10978;BME280;5542;48.272;10.794;2024-03-22T04:43:09;96197.34;;;5.61;93.82
10978;BME280;5542;48.272;10.794;2024-03-22T04:45:36;96195.09;;;5.58;93.64
10978;BME280;5542;48.272;10.794;2024-03-22T04:48:04;96199.97;;;5.61;94.11
10978;BME280;5542;48.272;10.794;2024-03-22T04:50:30;96198.59;;;5.65;93.95
10978;BME280;5542;48.272;10.794;2024-03-22T04:52:57;96205.03;;;5.69;94.18
10978;BME280;5542;48.272;10.794;2024-03-22T04:55:23;96210.50;;;5.53;94.23
10978;BME280;5542;48.272;10.794;2024-03-22T04:57:51;96211.63;;;5.29;96.04
10978;BME280;5542;48.272;10.794;2024-03-22T05:00:18;96208.84;;;5.30;96.74
10978;BME280;5542;48.272;10.794;2024-03-22T05:02:45;96212.59;;;5.43;96.29
10978;BME280;5542;48.272;10.794;2024-03-22T05:05:11;96220.50;;;5.49;95.58
10978;BME280;5542;48.272;10.794;2024-03-22T05:07:38;96220.13;;;5.52;95.94
10978;BME280;5542;48.272;10.794;2024-03-22T05:10:04;96215.38;;;5.41;96.51
10978;BME280;5542;48.272;10.794;2024-03-22T05:12:31;96205.38;;;5.45;96.54
10978;BME280;5542;48.272;10.794;2024-03-22T05:14:59;96205.78;;;5.42;96.87
10978;BME280;5542;48.272;10.794;2024-03-22T05:17:25;96213.91;;;5.53;96.39
10978;BME280;5542;48.272;10.794;2024-03-22T05:19:52;96206.03;;;5.47;96.20
10978;BME280;5542;48.272;10.794;2024-03-22T05:22:17;96207.16;;;5.59;95.86
10978;BME280;5542;48.272;10.794;2024-03-22T05:24:47;96207.44;;;5.49;96.63
10978;BME280;5542;48.272;10.794;2024-03-22T05:27:13;96205.47;;;5.51;96.22
10978;BME280;5542;48.272;10.794;2024-03-22T05:29:40;96202.63;;;5.46;96.95
10978;BME280;5542;48.272;10.794;2024-03-22T05:32:07;96201.56;;;5.62;96.07
10978;BME280;5542;48.272;10.794;2024-03-22T05:34:34;96203.84;;;5.50;95.80
10978;BME280;5542;48.272;10.794;2024-03-22T05:37:00;96202.22;;;5.49;96.28
10978;BME280;5542;48.272;10.794;2024-03-22T05:39:27;96211.34;;;5.38;97.03
10978;BME280;5542;48.272;10.794;2024-03-22T05:41:53;96206.13;;;5.38;97.62
10978;BME280;5542;48.272;10.794;2024-03-22T05:44:21;96207.13;;;5.37;96.61
10978;BME280;5542;48.272;10.794;2024-03-22T05:46:47;96209.09;;;5.35;96.95
10978;BME280;5542;48.272;10.794;2024-03-22T05:49:15;96211.72;;;5.35;97.14
10978;BME280;5542;48.272;10.794;2024-03-22T05:51:41;96204.59;;;5.44;96.95
10978;BME280;5542;48.272;10.794;2024-03-22T05:54:08;96194.59;;;5.48;96.62
10978;BME280;5542;48.272;10.794;2024-03-22T05:56:34;96191.56;;;5.65;95.64
10978;BME280;5542;48.272;10.794;2024-03-22T05:59:01;96196.72;;;5.59;94.61
10978;BME280;5542;48.272;10.794;2024-03-22T06:01:27;96193.03;;;5.53;94.61
10978;BME280;5542;48.272;10.794;2024-03-22T06:03:53;96185.34;;;5.67;93.78
10978;BME280;5542;48.272;10.794;2024-03-22T06:06:21;96182.78;;;5.73;93.27
10978;BME280;5542;48.272;10.794;2024-03-22T06:08:50;96180.13;;;5.67;93.42
10978;BME280;5542;48.272;10.794;2024-03-22T06:11:18;96174.66;;;5.61;94.16
10978;BME280;5542;48.272;10.794;2024-03-22T06:13:45;96181.78;;;5.74;94.23
10978;BME280;5542;48.272;10.794;2024-03-22T06:16:11;96171.31;;;5.68;94.86
10978;BME280;5542;48.272;10.794;2024-03-22T06:18:37;96179.94;;;5.68;95.52
10978;BME280;5542;48.272;10.794;2024-03-22T06:21:03;96185.91;;;5.62;96.68
10978;BME280;5542;48.272;10.794;2024-03-22T06:23:32;96180.94;;;5.67;97.15
10978;BME280;5542;48.272;10.794;2024-03-22T06:25:58;96174.72;;;5.68;97.45
10978;BME280;5542;48.272;10.794;2024-03-22T06:28:27;96175.22;;;5.78;97.62
10978;BME280;5542;48.272;10.794;2024-03-22T06:30:53;96183.53;;;5.88;98.50
10978;BME280;5542;48.272;10.794;2024-03-22T06:33:20;96173.47;;;6.07;98.16
10978;BME280;5542;48.272;10.794;2024-03-22T06:35:45;96179.91;;;6.32;97.60
10978;BME280;5542;48.272;10.794;2024-03-22T06:38:12;96166.28;;;6.72;95.93
10978;BME280;5542;48.272;10.794;2024-03-22T06:40:40;96161.84;;;7.13;94.85
10978;BME280;5542;48.272;10.794;2024-03-22T06:43:06;96160.19;;;7.67;92.41
10978;BME280;5542;48.272;10.794;2024-03-22T06:45:32;96164.03;;;8.24;89.13
10978;BME280;5542;48.272;10.794;2024-03-22T06:47:59;96160.56;;;8.77;84.26
10978;BME280;5542;48.272;10.794;2024-03-22T06:50:25;96161.69;;;9.01;81.65
10978;BME280;5542;48.272;10.794;2024-03-22T06:52:52;96161.59;;;9.27;80.31
10978;BME280;5542;48.272;10.794;2024-03-22T06:55:18;96153.66;;;9.72;78.19
10978;BME280;5542;48.272;10.794;2024-03-22T06:57:47;96159.31;;;10.32;79.09
10978;BME280;5542;48.272;10.794;2024-03-22T07:00:14;96153.31;;;11.05;75.46
10978;BME280;5542;48.272;10.794;2024-03-22T07:02:41;96155.50;;;11.26;71.13
10978;BME280;5542;48.272;10.794;2024-03-22T07:05:07;96160.19;;;11.06;72.43
10978;BME280;5542;48.272;10.794;2024-03-22T07:07:35;96163.41;;;11.08;72.57
10978;BME280;5542;48.272;10.794;2024-03-22T07:10:01;96162.81;;;11.06;72.65
10978;BME280;5542;48.272;10.794;2024-03-22T07:12:28;96158.13;;;11.26;73.88
10978;BME280;5542;48.272;10.794;2024-03-22T07:14:56;96162.56;;;11.74;72.87
10978;BME280;5542;48.272;10.794;2024-03-22T07:17:23;96157.09;;;12.41;70.19
10978;BME280;5542;48.272;10.794;2024-03-22T07:19:50;96150.75;;;12.89;66.52
10978;BME280;5542;48.272;10.794;2024-03-22T07:22:17;96136.59;;;13.47;65.28
10978;BME280;5542;48.272;10.794;2024-03-22T07:24:46;96123.53;;;13.86;62.12
10978;BME280;5542;48.272;10.794;2024-03-22T07:27:14;96127.97;;;13.97;61.67
10978;BME280;5542;48.272;10.794;2024-03-22T07:29:40;96124.13;;;14.05;60.72
10978;BME280;5542;48.272;10.794;2024-03-22T07:32:09;96116.75;;;13.90;61.11
10978;BME280;5542;48.272;10.794;2024-03-22T07:34:35;96117.94;;;13.82;62.36
10978;BME280;5542;48.272;10.794;2024-03-22T07:37:01;96118.69;;;14.12;61.91
10978;BME280;5542;48.272;10.794;2024-03-22T07:39:27;96109.22;;;14.49;59.82
10978;BME280;5542;48.272;10.794;2024-03-22T07:41:55;96110.91;;;14.55;58.89
10978;BME280;5542;48.272;10.794;2024-03-22T07:44:20;96118.50;;;14.69;58.71
10978;BME280;5542;48.272;10.794;2024-03-22T07:46:49;96112.84;;;14.82;58.51
10978;BME280;5542;48.272;10.794;2024-03-22T07:49:16;96110.88;;;15.16;57.55
10978;BME280;5542;48.272;10.794;2024-03-22T07:51:43;96105.63;;;15.43;56.77
10978;BME280;5542;48.272;10.794;2024-03-22T07:54:09;96103.28;;;15.74;56.74
10978;BME280;5542;48.272;10.794;2024-03-22T07:56:36;96095.41;;;16.16;54.19
10978;BME280;5542;48.272;10.794;2024-03-22T07:59:02;96094.72;;;16.31;52.17
10978;BME280;5542;48.272;10.794;2024-03-22T08:01:30;96090.69;;;16.23;52.54
10978;BME280;5542;48.272;10.794;2024-03-22T08:03:56;96086.84;;;16.88;51.38
10978;BME280;5542;48.272;10.794;2024-03-22T08:06:24;96081.81;;;16.92;49.45
10978;BME280;5542;48.272;10.794;2024-03-22T08:08:50;96081.00;;;16.86;48.44
10978;BME280;5542;48.272;10.794;2024-03-22T08:11:17;96076.25;;;16.51;49.61
10978;BME280;5542;48.272;10.794;2024-03-22T08:13:44;96081.50;;;16.41;52.50
10978;BME280;5542;48.272;10.794;2024-03-22T08:16:09;96071.13;;;16.72;49.61
10978;BME280;5542;48.272;10.794;2024-03-22T08:18:36;96066.13;;;16.85;48.21
10978;BME280;5542;48.272;10.794;2024-03-22T08:21:03;96073.00;;;16.76;49.33
10978;BME280;5542;48.272;10.794;2024-03-22T08:23:31;96071.97;;;16.87;49.87
10978;BME280;5542;48.272;10.794;2024-03-22T08:26:03;96061.44;;;17.13;47.61
10978;BME280;5542;48.272;10.794;2024-03-22T08:28:30;96066.22;;;17.11;48.29
10978;BME280;5542;48.272;10.794;2024-03-22T08:30:56;96063.06;;;17.19;48.13
10978;BME280;5542;48.272;10.794;2024-03-22T08:33:32;96056.41;;;17.27;47.21
10978;BME280;5542;48.272;10.794;2024-03-22T08:35:58;96059.56;;;17.13;47.52
10978;BME280;5542;48.272;10.794;2024-03-22T08:38:26;96058.25;;;17.16;48.75
10978;BME280;5542;48.272;10.794;2024-03-22T08:40:54;96048.75;;;17.56;47.37
10978;BME280;5542;48.272;10.794;2024-03-22T08:43:21;96050.16;;;18.04;45.82
10978;BME280;5542;48.272;10.794;2024-03-22T08:45:48;96049.34;;;17.88;46.06
10978;BME280;5542;48.272;10.794;2024-03-22T08:48:15;96049.91;;;17.90;47.21
10978;BME280;5542;48.272;10.794;2024-03-22T08:50:42;96049.59;;;18.17;47.93
10978;BME280;5542;48.272;10.794;2024-03-22T08:53:09;96034.13;;;18.40;44.32
10978;BME280;5542;48.272;10.794;2024-03-22T08:55:35;96041.63;;;18.02;45.10
10978;BME280;5542;48.272;10.794;2024-03-22T08:58:03;96040.06;;;17.86;45.85
10978;BME280;5542;48.272;10.794;2024-03-22T09:00:29;96036.84;;;17.84;46.41
10978;BME280;5542;48.272;10.794;2024-03-22T09:02:56;96026.94;;;18.40;44.92
10978;BME280;5542;48.272;10.794;2024-03-22T09:05:22;96033.56;;;18.48;44.57
10978;BME280;5542;48.272;10.794;2024-03-22T09:07:49;96031.78;;;18.23;44.98
10978;BME280;5542;48.272;10.794;2024-03-22T09:10:15;96030.47;;;17.95;45.71
10978;BME280;5542;48.272;10.794;2024-03-22T09:12:42;96035.25;;;17.78;47.46
10978;BME280;5542;48.272;10.794;2024-03-22T09:15:10;96034.94;;;17.49;46.64
10978;BME280;5542;48.272;10.794;2024-03-22T09:17:36;96037.31;;;17.55;47.50
10978;BME280;5542;48.272;10.794;2024-03-22T09:20:03;96030.69;;;17.48;47.18
10978;BME280;5542;48.272;10.794;2024-03-22T09:22:30;96026.69;;;17.45;48.07
10978;BME280;5542;48.272;10.794;2024-03-22T09:24:58;96031.50;;;17.53;46.90
10978;BME280;5542;48.272;10.794;2024-03-22T09:27:34;96027.47;;;17.35;45.08
10978;BME280;5542;48.272;10.794;2024-03-22T09:30:00;96031.38;;;17.02;47.38
10978;BME280;5542;48.272;10.794;2024-03-22T09:32:31;96023.38;;;16.87;47.21
10978;BME280;5542;48.272;10.794;2024-03-22T09:34:57;96019.91;;;16.92;47.69
10978;BME280;5542;48.272;10.794;2024-03-22T09:37:23;96011.66;;;16.83;46.92
10978;BME280;5542;48.272;10.794;2024-03-22T09:39:49;96015.00;;;16.63;48.41
10978;BME280;5542;48.272;10.794;2024-03-22T09:42:22;96013.81;;;16.33;49.65
10978;BME280;5542;48.272;10.794;2024-03-22T09:44:49;96021.13;;;16.16;48.76
10978;BME280;5542;48.272;10.794;2024-03-22T09:47:16;96016.22;;;15.98;50.19
10978;BME280;5542;48.272;10.794;2024-03-22T09:49:44;96018.84;;;15.93;51.03
10978;BME280;5542;48.272;10.794;2024-03-22T09:52:14;96015.16;;;15.99;50.82
10978;BME280;5542;48.272;10.794;2024-03-22T09:54:41;96007.97;;;15.94;50.41
10978;BME280;5542;48.272;10.794;2024-03-22T09:57:12;96018.81;;;15.87;51.36
10978;BME280;5542;48.272;10.794;2024-03-22T09:59:39;96008.94;;;15.78;51.52
10978;BME280;5542;48.272;10.794;2024-03-22T10:02:09;96008.16;;;15.82;50.85
10978;BME280;5542;48.272;10.794;2024-03-22T10:04:36;96006.31;;;15.83;50.01
10978;BME280;5542;48.272;10.794;2024-03-22T10:07:04;96010.22;;;15.43;51.82
10978;BME280;5542;48.272;10.794;2024-03-22T10:09:30;96007.41;;;15.28;53.14
10978;BME280;5542;48.272;10.794;2024-03-22T10:11:58;96004.56;;;15.34;53.62
10978;BME280;5542;48.272;10.794;2024-03-22T10:14:24;96004.03;;;15.37;53.50
10978;BME280;5542;48.272;10.794;2024-03-22T10:16:52;96004.94;;;15.48;52.66
10978;BME280;5542;48.272;10.794;2024-03-22T10:19:19;96011.28;;;15.47;53.19
10978;BME280;5542;48.272;10.794;2024-03-22T10:21:47;96004.03;;;15.37;52.65
10978;BME280;5542;48.272;10.794;2024-03-22T10:24:14;96011.00;;;15.17;54.37
10978;BME280;5542;48.272;10.794;2024-03-22T10:26:41;96001.50;;;15.21;54.93
10978;BME280;5542;48.272;10.794;2024-03-22T10:29:07;95992.06;;;15.30;53.92
10978;BME280;5542;48.272;10.794;2024-03-22T10:31:35;96000.94;;;15.19;54.63
10978;BME280;5542;48.272;10.794;2024-03-22T10:34:02;96002.66;;;15.30;53.65
10978;BME280;5542;48.272;10.794;2024-03-22T10:36:31;95992.94;;;15.41;54.56
10978;BME280;5542;48.272;10.794;2024-03-22T10:38:58;95991.22;;;15.56;54.44
10978;BME280;5542;48.272;10.794;2024-03-22T10:41:27;95989.75;;;15.71;54.44
10978;BME280;5542;48.272;10.794;2024-03-22T10:43:53;95985.03;;;15.73;54.36
10978;BME280;5542;48.272;10.794;2024-03-22T10:46:32;95982.53;;;15.98;51.17
10978;BME280;5542;48.272;10.794;2024-03-22T10:48:58;95979.91;;;16.03;52.25
10978;BME280;5542;48.272;10.794;2024-03-22T10:51:26;95970.97;;;16.15;51.57
10978;BME280;5542;48.272;10.794;2024-03-22T10:53:53;95972.31;;;16.17;50.72
10978;BME280;5542;48.272;10.794;2024-03-22T10:56:23;95962.25;;;16.19;51.00
10978;BME280;5542;48.272;10.794;2024-03-22T10:58:51;95958.00;;;16.23;51.91
10978;BME280;5542;48.272;10.794;2024-03-22T11:01:22;95956.22;;;16.39;50.73
10978;BME280;5542;48.272;10.794;2024-03-22T11:03:51;95956.47;;;16.37;49.64
10978;BME280;5542;48.272;10.794;2024-03-22T11:06:19;95951.31;;;16.10;50.04
10978;BME280;5542;48.272;10.794;2024-03-22T11:08:49;95948.97;;;16.19;50.20
10978;BME280;5542;48.272;10.794;2024-03-22T11:11:18;95946.31;;;16.19;51.32
10978;BME280;5542;48.272;10.794;2024-03-22T11:13:46;95947.19;;;16.40;49.55
10978;BME280;5542;48.272;10.794;2024-03-22T11:16:15;95937.34;;;16.30;50.54
10978;BME280;5542;48.272;10.794;2024-03-22T11:18:43;95928.66;;;16.55;49.68
10978;BME280;5542;48.272;10.794;2024-03-22T11:21:11;95924.78;;;16.83;49.28
10978;BME280;5542;48.272;10.794;2024-03-22T11:23:38;95916.53;;;16.75;50.08
10978;BME280;5542;48.272;10.794;2024-03-22T11:26:05;95917.09;;;16.72;50.52
10978;BME280;5542;48.272;10.794;2024-03-22T11:28:33;95901.72;;;17.04;47.07
10978;BME280;5542;48.272;10.794;2024-03-22T11:31:00;95907.00;;;16.84;48.43
10978;BME280;5542;48.272;10.794;2024-03-22T11:33:27;95895.31;;;16.80;48.77
10978;BME280;5542;48.272;10.794;2024-03-22T11:35:58;95893.72;;;16.89;48.75
10978;BME280;5542;48.272;10.794;2024-03-22T11:38:24;95882.84;;;17.11;48.64
10978;BME280;5542;48.272;10.794;2024-03-22T11:40:52;95886.59;;;17.15;49.66
10978;BME280;5542;48.272;10.794;2024-03-22T11:43:19;95880.47;;;17.09;47.44
10978;BME280;5542;48.272;10.794;2024-03-22T11:45:47;95873.03;;;17.06;46.82
10978;BME280;5542;48.272;10.794;2024-03-22T11:48:15;95857.09;;;16.91;48.25
10978;BME280;5542;48.272;10.794;2024-03-22T11:51:05;95860.81;;;17.15;48.55
10978;BME280;5542;48.272;10.794;2024-03-22T11:53:31;95864.25;;;17.01;48.16
10978;BME280;5542;48.272;10.794;2024-03-22T11:55:58;95859.19;;;16.89;48.86
10978;BME280;5542;48.272;10.794;2024-03-22T11:58:26;95851.50;;;16.87;48.85
10978;BME280;5542;48.272;10.794;2024-03-22T12:00:53;95848.31;;;17.06;48.42
10978;BME280;5542;48.272;10.794;2024-03-22T12:03:19;95832.88;;;17.13;47.50
10978;BME280;5542;48.272;10.794;2024-03-22T12:05:46;95833.69;;;17.34;47.51
10978;BME280;5542;48.272;10.794;2024-03-22T12:08:15;95829.44;;;17.33;47.22
10978;BME280;5542;48.272;10.794;2024-03-22T12:10:56;95828.38;;;17.13;48.11
10978;BME280;5542;48.272;10.794;2024-03-22T12:13:25;95824.66;;;17.25;49.00
10978;BME280;5542;48.272;10.794;2024-03-22T12:15:51;95821.72;;;17.31;47.85
10978;BME280;5542;48.272;10.794;2024-03-22T12:18:18;95816.16;;;17.33;48.06
10978;BME280;5542;48.272;10.794;2024-03-22T12:20:44;95811.91;;;17.06;48.32
10978;BME280;5542;48.272;10.794;2024-03-22T12:23:11;95808.19;;;17.07;49.27
10978;BME280;5542;48.272;10.794;2024-03-22T12:25:38;95807.94;;;17.14;48.69
10978;BME280;5542;48.272;10.794;2024-03-22T12:28:06;95797.28;;;17.24;48.37
10978;BME280;5542;48.272;10.794;2024-03-22T12:30:31;95801.56;;;17.00;49.07
10978;BME280;5542;48.272;10.794;2024-03-22T12:32:59;95795.44;;;17.09;49.13
10978;BME280;5542;48.272;10.794;2024-03-22T12:35:25;95785.59;;;17.10;50.02
10978;BME280;5542;48.272;10.794;2024-03-22T12:37:52;95780.56;;;17.19;48.85
10978;BME280;5542;48.272;10.794;2024-03-22T12:40:18;95785.53;;;17.40;48.54
10978;BME280;5542;48.272;10.794;2024-03-22T12:42:46;95776.75;;;17.45;47.45
10978;BME280;5542;48.272;10.794;2024-03-22T12:45:12;95770.63;;;17.55;47.20
10978;BME280;5542;48.272;10.794;2024-03-22T12:47:39;95773.00;;;17.56;48.57
10978;BME280;5542;48.272;10.794;2024-03-22T12:50:05;95767.91;;;17.65;48.74
10978;BME280;5542;48.272;10.794;2024-03-22T12:52:33;95769.81;;;17.54;47.77
10978;BME280;5542;48.272;10.794;2024-03-22T12:54:58;95760.00;;;17.50;47.75
10978;BME280;5542;48.272;10.794;2024-03-22T12:57:25;95751.97;;;17.60;48.06
10978;BME280;5542;48.272;10.794;2024-03-22T12:59:53;95754.94;;;17.58;49.82
10978;BME280;5542;48.272;10.794;2024-03-22T13:02:20;95746.66;;;17.65;48.37
10978;BME280;5542;48.272;10.794;2024-03-22T13:04:45;95736.28;;;17.63;47.78